createdAt,value
2018-03-28T00:00:26.570Z,8.30
2018-03-28T00:02:54.957Z,8.30
2018-03-28T00:05:23.250Z,8.30
2018-03-28T00:07:51.560Z,8.30
2018-03-28T00:10:20.740Z,8.10
2018-03-28T00:12:50.507Z,8.00
2018-03-28T00:15:18.776Z,8.00
2018-03-28T00:17:47.022Z,8.00
2018-03-28T00:20:16.184Z,7.90
2018-03-28T00:22:44.561Z,7.90
2018-03-28T00:25:12.875Z,7.90
2018-03-28T00:27:41.906Z,7.90
2018-03-28T00:30:10.124Z,8.00
2018-03-28T00:32:38.369Z,7.90
2018-03-28T00:35:07.285Z,7.90
2018-03-28T00:37:35.649Z,8.00
2018-03-28T00:40:03.901Z,8.00
2018-03-28T00:42:32.138Z,8.00
2018-03-28T00:45:00.341Z,8.00
2018-03-28T00:47:29.343Z,8.00
2018-03-28T00:49:58.357Z,8.10
2018-03-28T00:52:26.721Z,8.10
2018-03-28T00:54:55.204Z,8.10
2018-03-28T00:57:23.661Z,8.10
2018-03-28T00:59:52.155Z,8.10
2018-03-28T01:02:21.173Z,8.10
2018-03-28T01:04:49.459Z,8.10
2018-03-28T01:07:17.718Z,8.10
2018-03-28T01:09:45.971Z,8.10
2018-03-28T01:12:14.985Z,8.10
2018-03-28T01:14:43.229Z,8.10
2018-03-28T01:17:14.095Z,8.10
2018-03-28T01:19:42.578Z,8.10
2018-03-28T01:22:11.325Z,8.20
2018-03-28T01:24:40.946Z,8.20
2018-03-28T01:27:12.780Z,8.20
2018-03-28T01:29:41.017Z,8.20
2018-03-28T01:32:09.892Z,8.20
2018-03-28T01:34:38.838Z,8.20
2018-03-28T01:37:07.244Z,8.20
2018-03-28T01:39:37.035Z,8.10
2018-03-28T01:42:05.631Z,8.10
2018-03-28T01:44:34.026Z,8.10
2018-03-28T01:47:03.048Z,8.00
2018-03-28T01:49:31.318Z,8.00
2018-03-28T01:51:59.602Z,8.00
2018-03-28T01:54:28.958Z,8.00
2018-03-28T01:56:57.324Z,7.90
2018-03-28T01:59:26.189Z,7.90
2018-03-28T02:01:55.530Z,7.90
2018-03-28T02:04:24.578Z,7.80
2018-03-28T02:06:53.751Z,7.80
2018-03-28T02:09:22.820Z,7.80
2018-03-28T02:11:51.079Z,7.80
2018-03-28T02:14:19.342Z,7.70
2018-03-28T02:16:47.643Z,7.70
2018-03-28T02:19:16.520Z,7.70
2018-03-28T02:21:44.783Z,7.70
2018-03-28T02:24:13.116Z,7.60
2018-03-28T02:26:41.365Z,7.60
2018-03-28T02:29:09.826Z,7.60
2018-03-28T02:31:41.645Z,7.70
2018-03-28T02:34:09.995Z,7.60
2018-03-28T02:36:38.377Z,7.60
2018-03-28T02:39:06.778Z,7.60
2018-03-28T02:41:35.567Z,7.60
2018-03-28T02:44:04.028Z,7.60
2018-03-28T02:46:32.370Z,7.60
2018-03-28T02:49:01.506Z,7.60
2018-03-28T02:51:30.414Z,7.60
2018-03-28T02:53:58.680Z,7.50
2018-03-28T02:56:26.920Z,7.50
2018-03-28T02:58:55.220Z,7.50
2018-03-28T03:01:23.723Z,7.50
2018-03-28T03:03:51.956Z,7.50
2018-03-28T03:06:20.273Z,7.50
2018-03-28T03:08:48.535Z,7.50
2018-03-28T03:11:17.026Z,7.50
2018-03-28T03:13:45.403Z,7.50
2018-03-28T03:16:13.694Z,7.50
2018-03-28T03:18:42.517Z,7.50
2018-03-28T03:21:11.925Z,7.50
2018-03-28T03:23:41.700Z,7.50
2018-03-28T03:26:10.042Z,7.50
2018-03-28T03:28:38.458Z,7.40
2018-03-28T03:31:06.740Z,7.40
2018-03-28T03:33:37.593Z,7.40
2018-03-28T03:36:07.445Z,7.30
2018-03-28T03:38:35.714Z,7.20
2018-03-28T03:41:04.922Z,7.20
2018-03-28T03:43:33.442Z,7.20
2018-03-28T03:46:02.450Z,7.10
2018-03-28T03:48:30.766Z,7.00
2018-03-28T03:51:00.124Z,7.10
2018-03-28T03:53:28.502Z,7.00
2018-03-28T03:55:56.904Z,7.00
2018-03-28T03:58:25.274Z,7.00
2018-03-28T04:00:53.552Z,7.00
2018-03-28T04:03:22.016Z,7.00
2018-03-28T04:05:50.434Z,7.00
2018-03-28T04:08:19.449Z,6.90
2018-03-28T04:10:47.811Z,6.90
2018-03-28T04:13:16.996Z,6.90
2018-03-28T04:15:45.356Z,6.90
2018-03-28T04:18:13.613Z,6.90
2018-03-28T04:20:43.551Z,6.80
2018-03-28T04:23:11.841Z,6.80
2018-03-28T04:25:40.214Z,6.70
2018-03-28T04:28:08.486Z,6.70
2018-03-28T04:30:36.756Z,6.60
2018-03-28T04:33:05.249Z,6.50
2018-03-28T04:35:33.581Z,6.50
2018-03-28T04:38:02.589Z,6.60
2018-03-28T04:40:30.848Z,6.50
2018-03-28T04:43:00.625Z,6.50
2018-03-28T04:45:29.015Z,6.50
2018-03-28T04:47:57.368Z,6.50
2018-03-28T04:50:25.739Z,6.50
2018-03-28T04:52:54.139Z,6.50
2018-03-28T04:55:22.497Z,6.40
2018-03-28T04:57:51.013Z,6.50
2018-03-28T05:00:20.047Z,6.40
2018-03-28T05:02:48.365Z,6.40
2018-03-28T05:05:16.659Z,6.40
2018-03-28T05:07:44.867Z,6.50
2018-03-28T05:10:13.939Z,6.50
2018-03-28T05:12:42.310Z,6.40
2018-03-28T05:15:10.772Z,6.50
2018-03-28T05:17:39.040Z,6.40
2018-03-28T05:20:07.340Z,6.40
2018-03-28T05:22:35.718Z,6.40
2018-03-28T05:25:03.981Z,6.40
2018-03-28T05:27:32.363Z,6.40
2018-03-28T05:30:00.862Z,6.50
2018-03-28T05:32:29.967Z,6.60
2018-03-28T05:34:58.238Z,6.50
2018-03-28T05:37:27.267Z,6.50
2018-03-28T05:39:55.548Z,6.50
2018-03-28T05:42:24.588Z,6.60
2018-03-28T05:44:52.871Z,6.60
2018-03-28T05:47:21.458Z,6.60
2018-03-28T05:49:49.973Z,6.50
2018-03-28T05:52:19.014Z,6.50
2018-03-28T05:54:47.410Z,6.50
2018-03-28T05:57:15.738Z,6.50
2018-03-28T05:59:44.799Z,6.60
2018-03-28T06:02:13.065Z,6.60
2018-03-28T06:04:41.442Z,6.70
2018-03-28T06:07:09.822Z,6.70
2018-03-28T06:09:38.105Z,6.80
2018-03-28T06:12:06.333Z,6.80
2018-03-28T06:14:35.187Z,6.80
2018-03-28T06:17:04.242Z,6.90
2018-03-28T06:19:32.455Z,6.90
2018-03-28T06:22:00.715Z,6.90
2018-03-28T06:24:29.511Z,6.90
2018-03-28T06:26:58.629Z,6.90
2018-03-28T06:29:26.868Z,6.90
2018-03-28T06:31:55.165Z,6.90
2018-03-28T06:34:23.456Z,6.90
2018-03-28T06:36:51.712Z,6.90
2018-03-28T06:39:20.026Z,7.00
2018-03-28T06:41:50.007Z,7.10
2018-03-28T06:44:19.261Z,7.10
2018-03-28T06:46:47.625Z,7.10
2018-03-28T06:49:17.014Z,7.20
2018-03-28T06:51:46.296Z,7.10
2018-03-28T06:54:14.518Z,7.10
2018-03-28T06:56:42.843Z,7.20
2018-03-28T06:59:12.134Z,7.30
2018-03-28T07:01:40.805Z,7.30
2018-03-28T07:04:09.228Z,7.30
2018-03-28T07:06:38.325Z,7.40
2018-03-28T07:09:06.693Z,7.40
2018-03-28T07:11:35.994Z,7.50
2018-03-28T07:14:04.494Z,7.50
2018-03-28T07:16:32.891Z,7.50
2018-03-28T07:19:01.909Z,7.50
2018-03-28T07:21:30.912Z,7.50
2018-03-28T07:23:59.187Z,7.50
2018-03-28T07:26:28.226Z,7.60
2018-03-28T07:28:58.250Z,7.70
2018-03-28T07:31:26.471Z,7.60
2018-03-28T07:33:55.625Z,7.60
2018-03-28T07:36:23.839Z,7.60
2018-03-28T07:38:52.832Z,7.70
2018-03-28T07:41:21.892Z,7.70
2018-03-28T07:43:50.172Z,7.70
2018-03-28T07:46:19.359Z,7.80
2018-03-28T07:48:47.845Z,7.80
2018-03-28T07:51:16.337Z,7.80
2018-03-28T07:53:44.654Z,7.80
2018-03-28T07:56:13.720Z,7.90
2018-03-28T07:58:42.090Z,7.80
2018-03-28T08:01:10.894Z,7.90
2018-03-28T08:03:39.896Z,7.90
2018-03-28T08:06:09.068Z,7.90
2018-03-28T08:08:37.326Z,7.90
2018-03-28T08:11:05.661Z,8.00
2018-03-28T08:13:34.799Z,8.10
2018-03-28T08:16:03.148Z,8.10
2018-03-28T08:18:32.335Z,8.20
2018-03-28T08:21:00.808Z,8.20
2018-03-28T08:23:29.260Z,8.30
2018-03-28T08:25:57.499Z,8.30
2018-03-28T08:28:26.051Z,8.30
2018-03-28T08:30:54.395Z,8.40
2018-03-28T08:33:22.702Z,8.40
2018-03-28T08:35:51.967Z,8.50
2018-03-28T08:38:20.255Z,8.50
2018-03-28T08:40:48.737Z,8.50
2018-03-28T08:43:17.136Z,8.60
2018-03-28T08:45:46.310Z,8.60
2018-03-28T08:48:14.621Z,8.60
2018-03-28T08:50:44.205Z,8.70
2018-03-28T08:53:12.430Z,8.70
2018-03-28T08:55:41.563Z,8.50
2018-03-28T08:58:09.811Z,8.50
2018-03-28T09:00:39.057Z,8.30
2018-03-28T09:03:07.330Z,8.20
2018-03-28T09:05:35.559Z,8.20
2018-03-28T09:08:04.821Z,8.10
2018-03-28T09:10:33.722Z,8.10
2018-03-28T09:13:02.186Z,8.00
2018-03-28T09:15:30.428Z,8.10
2018-03-28T09:17:58.695Z,8.10
2018-03-28T09:20:27.770Z,8.10
2018-03-28T09:22:57.093Z,8.20
2018-03-28T09:25:25.355Z,8.10
2018-03-28T09:27:54.447Z,8.10
2018-03-28T09:30:22.847Z,8.10
2018-03-28T09:32:51.852Z,8.20
2018-03-28T09:35:20.910Z,8.20
2018-03-28T09:37:49.252Z,8.20
2018-03-28T09:40:17.537Z,8.20
2018-03-28T09:42:45.836Z,8.20
2018-03-28T09:45:14.422Z,8.10
2018-03-28T09:47:42.714Z,8.10
2018-03-28T09:50:11.170Z,8.10
2018-03-28T09:52:39.517Z,8.00
2018-03-28T09:55:07.782Z,8.00
2018-03-28T09:57:36.218Z,8.00
2018-03-28T10:00:04.540Z,8.00
2018-03-28T10:02:32.962Z,7.90
2018-03-28T10:05:01.201Z,7.90
2018-03-28T10:07:30.208Z,7.80
2018-03-28T10:09:58.736Z,7.80
2018-03-28T10:12:27.122Z,7.80
2018-03-28T10:14:56.262Z,7.80
2018-03-28T10:17:24.585Z,7.80
2018-03-28T10:19:52.949Z,7.70
2018-03-28T10:22:21.356Z,7.80
2018-03-28T10:24:49.674Z,7.70
2018-03-28T10:27:17.968Z,7.80
2018-03-28T10:29:46.225Z,7.80
2018-03-28T10:32:14.595Z,7.70
2018-03-28T10:34:43.060Z,7.80
2018-03-28T10:37:12.247Z,7.80
2018-03-28T10:39:41.286Z,7.70
2018-03-28T10:42:09.651Z,7.70
2018-03-28T10:44:37.897Z,7.70
2018-03-28T10:47:06.222Z,7.60
2018-03-28T10:49:34.763Z,7.50
2018-03-28T10:52:03.131Z,7.40
2018-03-28T10:54:31.417Z,7.20
2018-03-28T10:56:59.772Z,7.20
2018-03-28T10:59:28.167Z,7.30
2018-03-28T11:01:56.497Z,7.30
2018-03-28T11:04:24.734Z,7.30
2018-03-28T11:06:53.031Z,7.40
2018-03-28T11:09:22.062Z,7.70
2018-03-28T11:11:50.355Z,7.70
2018-03-28T11:14:18.595Z,7.80
2018-03-28T11:16:47.601Z,7.90
2018-03-28T11:19:15.872Z,7.90
2018-03-28T11:21:44.892Z,7.90
2018-03-28T11:24:13.276Z,7.90
2018-03-28T11:26:41.600Z,7.90
2018-03-28T11:29:10.695Z,8.10
2018-03-28T11:31:40.695Z,8.10
2018-03-28T11:34:08.931Z,8.10
2018-03-28T11:36:37.232Z,7.90
2018-03-28T11:39:06.554Z,7.60
2018-03-28T11:41:35.897Z,7.80
2018-03-28T11:44:05.041Z,7.80
2018-03-28T11:46:33.411Z,7.80
2018-03-28T11:49:01.682Z,7.90
2018-03-28T11:51:29.936Z,7.80
2018-03-28T11:54:00.714Z,7.70
2018-03-28T11:56:28.986Z,7.80
2018-03-28T11:58:57.447Z,7.90
2018-03-28T12:01:25.736Z,7.90
2018-03-28T12:03:54.014Z,7.90
2018-03-28T12:06:22.250Z,7.80
2018-03-28T12:08:51.388Z,7.80
2018-03-28T12:11:19.692Z,7.80
2018-03-28T12:13:47.988Z,7.80
2018-03-28T12:16:16.244Z,7.80
2018-03-28T12:18:44.509Z,7.80
2018-03-28T12:21:12.776Z,7.70
2018-03-28T12:23:41.104Z,7.70
2018-03-28T12:26:09.555Z,7.80
2018-03-28T12:28:38.039Z,7.80
2018-03-28T12:31:06.319Z,7.90
2018-03-28T12:33:34.635Z,8.00
2018-03-28T12:36:03.769Z,8.10
2018-03-28T12:38:32.104Z,8.10
2018-03-28T12:41:01.133Z,7.90
2018-03-28T12:43:29.483Z,7.90
2018-03-28T12:45:57.756Z,7.90
2018-03-28T12:48:26.046Z,7.80
2018-03-28T12:50:55.040Z,7.80
2018-03-28T12:53:23.303Z,7.80
2018-03-28T12:55:51.685Z,7.70
2018-03-28T12:58:20.006Z,7.70
2018-03-28T13:00:48.302Z,7.70
2018-03-28T13:03:16.683Z,7.70
2018-03-28T13:05:45.258Z,7.60
2018-03-28T13:08:13.539Z,7.60
2018-03-28T13:10:41.804Z,7.70
2018-03-28T13:13:11.286Z,7.70
2018-03-28T13:15:40.999Z,7.60
2018-03-28T13:18:09.596Z,7.60
2018-03-28T13:20:37.868Z,7.40
2018-03-28T13:23:06.149Z,7.40
2018-03-28T13:25:34.815Z,7.30
2018-03-28T13:28:03.099Z,7.30
2018-03-28T13:30:32.148Z,7.30
2018-03-28T13:33:00.409Z,7.20
2018-03-28T13:35:31.136Z,7.10
2018-03-28T13:37:59.548Z,6.90
2018-03-28T13:40:28.771Z,7.00
2018-03-28T13:42:57.785Z,7.00
2018-03-28T13:45:26.151Z,7.00
2018-03-28T13:47:55.278Z,7.10
2018-03-28T13:50:24.386Z,7.00
2018-03-28T13:52:52.789Z,7.00
2018-03-28T13:55:21.084Z,7.00
2018-03-28T13:57:49.444Z,6.90
2018-03-28T14:00:17.868Z,6.90
2018-03-28T14:02:46.931Z,6.90
2018-03-28T14:05:15.189Z,6.90
2018-03-28T14:07:43.423Z,7.00
2018-03-28T14:10:12.516Z,6.90
2018-03-28T14:12:41.787Z,6.90
2018-03-28T14:15:10.056Z,6.90
2018-03-28T14:17:38.425Z,6.80
2018-03-28T14:20:06.701Z,6.70
2018-03-28T14:22:34.960Z,6.70
2018-03-28T14:25:03.354Z,6.60
2018-03-28T14:27:31.643Z,6.60
2018-03-28T14:29:59.933Z,6.60
2018-03-28T14:32:28.196Z,6.50
2018-03-28T14:34:57.503Z,6.40
2018-03-28T14:37:26.568Z,6.40
2018-03-28T14:39:54.859Z,6.40
2018-03-28T14:42:23.374Z,6.40
2018-03-28T14:44:52.491Z,6.40
2018-03-28T14:47:20.819Z,6.40
2018-03-28T14:49:49.095Z,6.30
2018-03-28T14:52:17.364Z,6.30
2018-03-28T14:54:45.724Z,6.40
2018-03-28T14:57:14.866Z,6.40
2018-03-28T14:59:43.257Z,6.40
2018-03-28T15:02:11.519Z,6.40
2018-03-28T15:04:39.894Z,6.40
2018-03-28T15:07:08.272Z,6.30
2018-03-28T15:09:36.607Z,6.50
2018-03-28T15:12:04.893Z,6.40
2018-03-28T15:14:33.990Z,6.30
2018-03-28T15:17:02.519Z,6.20
2018-03-28T15:19:30.859Z,6.20
2018-03-28T15:21:59.118Z,6.20
2018-03-28T15:27:02.663Z,5.90
2018-03-28T15:29:30.886Z,5.90
2018-03-28T15:31:59.239Z,5.80
2018-03-28T15:34:27.551Z,5.70
2018-03-28T15:36:55.785Z,5.60
2018-03-28T15:39:24.266Z,5.50
2018-03-28T15:41:52.765Z,5.60
2018-03-28T15:44:21.009Z,5.50
2018-03-28T15:46:49.450Z,5.50
2018-03-28T15:49:18.469Z,5.70
2018-03-28T15:51:46.869Z,5.70
2018-03-28T15:54:15.407Z,5.70
2018-03-28T15:56:43.762Z,5.60
2018-03-28T15:59:12.102Z,5.50
2018-03-28T16:01:40.496Z,5.50
2018-03-28T16:04:08.786Z,5.50
2018-03-28T16:06:37.119Z,5.40
2018-03-28T16:09:06.188Z,5.30
2018-03-28T16:11:34.524Z,5.30
2018-03-28T16:14:03.094Z,5.20
2018-03-28T16:16:31.392Z,5.10
2018-03-28T16:19:00.112Z,5.00
2018-03-28T16:21:29.270Z,4.90
2018-03-28T16:23:58.351Z,4.90
2018-03-28T16:26:26.642Z,4.90
2018-03-28T16:28:55.100Z,4.90
2018-03-28T16:31:23.379Z,4.90
2018-03-28T16:33:52.449Z,4.80
2018-03-28T16:36:22.140Z,4.70
2018-03-28T16:38:50.726Z,4.70
2018-03-28T16:41:19.189Z,4.70
2018-03-28T16:43:47.417Z,4.70
2018-03-28T16:46:15.660Z,4.70
2018-03-28T16:48:44.054Z,4.70
2018-03-28T16:51:12.344Z,4.60
2018-03-28T16:53:41.520Z,4.60
2018-03-28T16:56:09.761Z,4.60
2018-03-28T16:58:38.138Z,4.60
2018-03-28T17:01:06.499Z,4.50
2018-03-28T17:03:34.865Z,4.50
2018-03-28T17:06:04.297Z,4.50
2018-03-28T17:08:33.445Z,4.50
2018-03-28T17:11:01.732Z,4.50
2018-03-28T17:13:30.078Z,4.50
2018-03-28T17:15:58.402Z,4.50
2018-03-28T17:18:26.606Z,4.50
2018-03-28T17:20:54.918Z,4.50
2018-03-28T17:23:23.172Z,4.50
2018-03-28T17:25:53.253Z,4.50
2018-03-28T17:28:27.710Z,4.50
2018-03-28T17:30:56.006Z,4.50
2018-03-28T17:33:24.301Z,4.50
2018-03-28T17:35:52.714Z,4.50
2018-03-28T17:38:21.816Z,4.50
2018-03-28T17:40:50.087Z,4.50
2018-03-28T17:43:18.454Z,4.50
2018-03-28T17:45:46.686Z,4.60
2018-03-28T17:48:14.991Z,4.60
2018-03-28T17:50:43.396Z,4.60
2018-03-28T17:53:11.696Z,4.60
2018-03-28T17:55:40.164Z,4.60
2018-03-28T17:58:08.428Z,4.60
2018-03-28T18:00:37.599Z,4.60
2018-03-28T18:03:05.880Z,4.60
2018-03-28T18:05:34.300Z,4.70
2018-03-28T18:08:02.650Z,4.60
2018-03-28T18:10:32.431Z,4.60
2018-03-28T18:13:00.736Z,4.60
2018-03-28T18:15:29.246Z,4.70
2018-03-28T18:17:58.283Z,4.70
2018-03-28T18:20:26.618Z,4.70
2018-03-28T18:22:56.608Z,4.70
2018-03-28T18:25:24.987Z,4.70
2018-03-28T18:27:53.473Z,4.70
2018-03-28T18:30:21.835Z,4.70
2018-03-28T18:32:50.206Z,4.80
2018-03-28T18:35:18.429Z,4.70
2018-03-28T18:37:46.734Z,4.70
2018-03-28T18:40:15.844Z,4.80
2018-03-28T18:42:44.245Z,4.80
2018-03-28T18:45:14.961Z,4.80
2018-03-28T18:47:46.289Z,4.80
2018-03-28T18:50:14.546Z,4.80
2018-03-28T18:52:43.839Z,4.80
2018-03-28T18:55:12.687Z,4.80
2018-03-28T18:57:41.701Z,4.80
2018-03-28T19:00:09.971Z,4.70
2018-03-28T19:02:38.367Z,4.70
2018-03-28T19:05:07.381Z,4.70
2018-03-28T19:07:35.824Z,4.70
2018-03-28T19:10:04.228Z,4.70
2018-03-28T19:12:32.542Z,4.70
2018-03-28T19:15:01.619Z,4.60
2018-03-28T19:17:29.867Z,4.60
2018-03-28T19:19:58.106Z,4.60
2018-03-28T19:22:26.332Z,4.60
2018-03-28T19:24:55.235Z,4.60
2018-03-28T19:27:23.512Z,4.60
2018-03-28T19:29:51.782Z,4.60
2018-03-28T19:32:20.164Z,4.50
2018-03-28T19:34:48.555Z,4.50
2018-03-28T19:37:17.064Z,4.60
2018-03-28T19:39:45.490Z,4.50
2018-03-28T19:42:13.746Z,4.50
2018-03-28T19:44:42.767Z,4.50
2018-03-28T19:47:12.038Z,4.50
2018-03-28T19:49:40.447Z,4.50
2018-03-28T19:52:08.745Z,4.60
2018-03-28T19:54:37.063Z,4.60
2018-03-28T19:57:05.411Z,4.70
2018-03-28T19:59:34.591Z,4.60
2018-03-28T20:02:04.301Z,4.60
2018-03-28T20:04:32.634Z,4.60
2018-03-28T20:07:01.734Z,4.70
2018-03-28T20:09:30.755Z,4.70
2018-03-28T20:11:59.865Z,4.70
2018-03-28T20:14:28.181Z,4.70
2018-03-28T20:16:57.189Z,4.70
2018-03-28T20:19:26.218Z,4.70
2018-03-28T20:21:55.235Z,4.70
2018-03-28T20:24:24.346Z,4.80
2018-03-28T20:26:52.674Z,4.80
2018-03-28T20:29:20.965Z,4.80
2018-03-28T20:31:49.382Z,4.80
2018-03-28T20:34:17.665Z,4.90
2018-03-28T20:36:49.395Z,4.90
2018-03-28T20:39:18.379Z,4.90
2018-03-28T20:41:46.590Z,4.80
2018-03-28T20:44:15.567Z,4.80
2018-03-28T20:46:43.791Z,4.80
2018-03-28T20:49:12.854Z,4.90
2018-03-28T20:51:42.753Z,4.90
2018-03-28T20:54:11.198Z,4.90
2018-03-28T20:56:39.577Z,4.90
2018-03-28T20:59:08.741Z,4.90
2018-03-28T21:01:37.947Z,4.90
2018-03-28T21:04:06.934Z,4.90
2018-03-28T21:06:36.252Z,4.90
2018-03-28T21:09:04.582Z,4.80
2018-03-28T21:11:32.966Z,4.80
2018-03-28T21:14:01.249Z,4.80
2018-03-28T21:16:29.468Z,4.80
2018-03-28T21:18:57.710Z,4.80
2018-03-28T21:21:26.049Z,4.80
2018-03-28T21:23:54.590Z,4.80
2018-03-28T21:26:23.599Z,4.80
2018-03-28T21:28:53.492Z,4.80
2018-03-28T21:31:22.328Z,4.80
2018-03-28T21:33:50.594Z,4.80
2018-03-28T21:36:18.865Z,4.80
2018-03-28T21:38:47.939Z,4.70
2018-03-28T21:41:16.916Z,4.70
2018-03-28T21:43:45.162Z,4.70
2018-03-28T21:46:13.470Z,4.70
2018-03-28T21:48:41.723Z,4.60
2018-03-28T21:51:11.148Z,4.50
2018-03-28T21:53:40.340Z,4.30
2018-03-28T21:56:08.620Z,4.30
2018-03-28T21:58:36.906Z,4.20
2018-03-28T22:01:05.906Z,4.10
2018-03-28T22:03:34.380Z,4.10
2018-03-28T22:06:02.960Z,4.00
2018-03-28T22:08:31.300Z,4.00
2018-03-28T22:11:00.320Z,3.90
2018-03-28T22:13:28.623Z,3.90
2018-03-28T22:15:58.072Z,3.90
2018-03-28T22:18:27.123Z,3.90
2018-03-28T22:20:55.373Z,3.90
2018-03-28T22:23:23.629Z,3.80
2018-03-28T22:25:52.763Z,3.70
2018-03-28T22:28:21.025Z,3.70
2018-03-28T22:30:49.427Z,3.60
2018-03-28T22:33:18.637Z,3.60
2018-03-28T22:35:46.858Z,3.60
2018-03-28T22:38:15.855Z,3.50
2018-03-28T22:40:44.094Z,3.50
2018-03-28T22:43:12.515Z,3.40
2018-03-28T22:45:41.485Z,3.40
2018-03-28T22:48:10.665Z,3.30
2018-03-28T22:50:39.136Z,3.20
2018-03-28T22:53:07.383Z,3.20
2018-03-28T22:55:35.662Z,3.20
2018-03-28T22:58:03.902Z,3.20
2018-03-28T23:00:33.067Z,3.20
2018-03-28T23:03:01.353Z,3.20
2018-03-28T23:05:29.637Z,3.30
2018-03-28T23:07:58.806Z,3.30
2018-03-28T23:10:27.060Z,3.20
2018-03-28T23:12:55.444Z,3.10
2018-03-28T23:15:23.773Z,3.10
2018-03-28T23:17:52.817Z,2.90
2018-03-28T23:20:21.072Z,2.90
2018-03-28T23:22:49.904Z,2.90
2018-03-28T23:25:18.277Z,2.80
2018-03-28T23:27:46.498Z,2.80
2018-03-28T23:30:14.838Z,2.90
2018-03-28T23:32:43.187Z,3.00
2018-03-28T23:35:11.501Z,3.10
2018-03-28T23:37:39.901Z,3.20
2018-03-28T23:40:08.260Z,3.20
2018-03-28T23:42:36.468Z,3.20
2018-03-28T23:45:04.824Z,3.30
2018-03-28T23:47:33.078Z,3.30
2018-03-28T23:50:01.387Z,3.40
2018-03-28T23:52:30.551Z,3.30
2018-03-28T23:54:58.835Z,3.30
2018-03-28T23:57:27.054Z,3.30
2018-03-28T23:59:55.322Z,3.30
